sim
Sign-in with your pilot id or email,
or register
Callsign
Passwort

Schedule Details

Flight Number: OEC1997
Departure: Thessaloniki International Airport (LGTS) at 11:45Z
Arrival: London Gatwick Airport (EGKK) at 14:55Z
Route: FSK4A FSK UL608 DISOR DCT LONTA UL608 DOLEV DCT RUDIK DCT NEMEK DCT TIBRO Y9 NAXAV Z613 SAFFA UZ613 RONAG UL613 RLP UT10 NITAR UQ220 KESAX UT421 KUNAV TIMB4B

Weather Information
Getting current METAR information for LGTS 230550Z VRB02KT CAVOK 27/18 Q1019 NOSIG
Getting current METAR information for EGKK 230550Z VRB01KT 9999 2300NW VCFG NSC 12/12 Q1025

Schedule Frequency

Route Map